• Join FlightAware (Why Join?)
  • Login
  • US Flag 
05:36AM EDT


 

Airport Tracker/Info


-or-


 

Live Flight TrackerFlight Track Log ✈ AAL1370 ✈ 17-Aug-2013 ✈ KDFW - MKJS / MBJ

Flight Track Log - Related Links

Times and Time Zones

All times are in EDT time to prevent confusion due to time zone crossing. See the AAL1370 flight status page for this flight to view local times or setup timezone preferences in your user account.

Time Position Orientation Groundspeed Altitude Reporting Facility
EDT Latitude Longitude Course Direction KTS MPH feet Rate Location/Type
12:28PM 32.6833 -96.7874 90° East  Level FlightAware Approximate
12:29PM 32.7101 -96.6409 77° East  Level FlightAware Approximate
12:29PM 32.7528 -96.8328 97° East 301 346 10,000  Level Fort Worth Center
12:30PM 32.7352 -96.4939 84° East  Level FlightAware Approximate
12:30PM 32.7542 -96.7292 89° East 333 383 11,500  Level Fort Worth Center
12:31PM 32.7477 -96.3445 84° East  Level FlightAware Approximate
12:31PM 32.7578 -96.5958 88° East 363 418 14,100  Level Fort Worth Center
12:32PM 32.7295 -96.1974 103° East  Level FlightAware Approximate
12:32PM 32.7589 -96.4772 89° East 377 434 16,300  Level Fort Worth Center
12:33PM 32.7049 -96.0503 100° East  Level FlightAware Approximate
12:33PM 32.7597 -96.3314 90° East 390 449 18,300  Level Fort Worth Center
12:34PM 32.6837 -95.9024 100° East  Level FlightAware Approximate
12:34PM 32.7400 -96.2056 101° East 417 480 20,200  Level Fort Worth Center
12:35PM 32.6599 -95.7553 97° East  Level FlightAware Approximate
12:35PM 32.7175 -96.0503 100° East 428 493 22,300  Level Fort Worth Center
12:36PM 32.6950 -95.9175 101° East 439 505 23,900 1,500 Climbing Fort Worth Center
12:37PM 32.6725 -95.7697 100° East 451 519 25,400 1,500 Climbing Fort Worth Center
12:38PM 32.6597 -95.6144 96° East 466 536 26,900 1,380 Climbing Fort Worth Center
12:39PM 32.6719 -95.4564 85° East 466 536 28,200 1,320 Climbing Fort Worth Center
12:40PM 32.6800 -95.2981 86° East 471 542 29,600 1,500 Climbing Fort Worth Center
12:41PM 32.6856 -95.1378 88° East 481 554 31,200 1,440 Climbing Fort Worth Center
12:42PM 32.6658 -94.9853 99° East 481 554 32,500 1,260 Climbing Fort Worth Center
12:43PM 32.5944 -94.8464 121° Southeast 469 540 33,800 1,200 Climbing Fort Worth Center
12:44PM 32.5225 -94.7081 122° Southeast 475 547 35,000 600 Climbing Fort Worth Center
12:45PM 32.4464 -94.5725 124° Southeast 486 559 35,000  Level Fort Worth Center
12:46PM 32.3767 -94.4369 121° Southeast 487 560 35,000  Level Fort Worth Center
12:47PM 32.3022 -94.2994 123° Southeast 487 560 35,000  Level Fort Worth Center
12:48PM 32.2300 -94.1692 123° Southeast 487 560 35,000  Level Fort Worth Center
12:50PM 32.0753 -93.8781 122° Southeast 483 556 35,000  Level Houston Center
12:52PM 32.0078 -93.7564 123° Southeast 482 555 35,000  Level Houston Center
12:53PM 31.9350 -93.6242 123° Southeast 482 555 35,000  Level Houston Center
12:54PM 31.8631 -93.4917 123° Southeast 482 555 35,000  Level Houston Center
12:55PM 31.7900 -93.3608 123° Southeast 480 552 35,000 -60 Level Houston Center
12:56PM 31.7081 -93.2108 123° Southeast 482 555 34,900 -60 Descending Houston Center
12:57PM 31.6333 -93.0789 124° Southeast 484 557 34,900  Level Houston Center
12:58PM 31.5608 -92.9469 123° Southeast 482 555 34,900  Level Houston Center
12:59PM 31.4872 -92.8167 124° Southeast 481 554 34,900  Level Houston Center
01:00PM 31.4142 -92.6867 123° Southeast 479 551 34,900  Level Houston Center
01:01PM 31.3403 -92.5542 123° Southeast 486 559 34,900  Level Houston Center
01:02PM 31.2519 -92.3981 123° Southeast 482 555 34,900  Level Houston Center
01:03PM 31.1761 -92.2675 124° Southeast 480 552 35,000  Climbing Houston Center
01:04PM 31.1033 -92.1381 123° Southeast 478 550 34,900  Descending Houston Center
01:05PM 31.0342 -92.0178 124° Southeast 474 545 35,000  Climbing Houston Center
01:06PM 30.9617 -91.8908 124° Southeast 471 542 35,000  Level Houston Center
01:07PM 30.8758 -91.7400 124° Southeast 467 537 35,000 480 Level Houston Center
01:08PM 30.8042 -91.6164 124° Southeast 463 533 36,000 840 Climbing Houston Center
01:09PM 30.7331 -91.4931 124° Southeast 460 529 36,800 420 Climbing Houston Center
01:10PM 30.6678 -91.3794 124° Southeast 460 529 36,900  Climbing Houston Center
01:11PM 30.5961 -91.2569 124° Southeast 460 529 36,900  Level Houston Center
01:12PM 30.5092 -91.1097 124° Southeast 461 531 36,900  Level Houston Center
01:13PM 30.4369 -90.9892 125° Southeast 458 527 36,900  Level Houston Center
01:14PM 30.3656 -90.8672 124° Southeast 459 528 36,900  Level Houston Center
01:15PM 30.2942 -90.7464 124° Southeast 458 527 36,900  Level Houston Center
01:16PM 30.2219 -90.6264 125° Southeast 458 527 36,900  Level Houston Center
01:17PM 30.1519 -90.5069 124° Southeast 452 520 36,900  Level Houston Center
01:18PM 30.0656 -90.3639 125° Southeast 454 522 36,900  Level Houston Center
01:19PM 29.9964 -90.2467 124° Southeast 448 516 36,900  Level Houston Center
01:20PM 29.9253 -90.1306 125° Southeast 447 514 36,900  Level Houston Center
01:21PM 29.8561 -90.0142 124° Southeast 444 511 36,900  Level Houston Center
01:22PM 29.7794 -89.9072 130° Southeast 436 502 36,900  Level Houston Center
01:23PM 29.7011 -89.8025 131° Southeast 434 499 36,900  Level Houston Center
01:24PM 29.6078 -89.6747 130° Southeast 436 502 36,900  Level Houston Center
01:25PM 29.5297 -89.5681 130° Southeast 437 503 36,900  Level Houston Center
01:26PM 29.4517 -89.4614 130° Southeast 438 504 36,900  Level Houston Center
01:27PM 29.3725 -89.3567 131° Southeast 437 503 36,900  Level Houston Center
01:29PM 29.2928 -89.2486 130° Southeast 443 510 36,900  Level Houston Center
01:30PM 29.2108 -89.1397 131° Southeast 451 519 36,900  Level Houston Center
01:31PM 29.1300 -89.0300 130° Southeast 451 519 36,900  Level Houston Center
01:32PM 29.0317 -88.8983 130° Southeast 455 524 36,900  Level Houston Center
01:33PM 28.9494 -88.7900 131° Southeast 454 522 36,900  Level Houston Center
01:34PM 28.8747 -88.6758 127° Southeast 452 520 36,900  Level Houston Center
01:35PM 28.8369 -88.5319 107° East 473 544 36,900  Level Houston Center
01:36PM 28.7878 -88.3953 112° Southeast 468 539 36,900  Level Houston Center
01:37PM 28.7250 -88.2669 119° Southeast 464 534 36,900  Level Houston Center
01:38PM 28.6614 -88.1381 119° Southeast 467 537 36,900  Level Houston Center
01:39PM 28.5928 -87.9981 119° Southeast 468 539 36,900  Level Houston Center
01:40PM 28.5372 -87.8653 115° Southeast 468 539 36,900  Level Houston Center
01:41PM 28.4814 -87.7314 115° Southeast 469 540 36,900  Level Houston Center
01:42PM 28.4269 -87.5661 111° Southeast 469 540 36,900  Level Houston Center
01:43PM 28.3797 -87.4297 111° Southeast 468 539 36,900  Level Houston Center
01:44PM 28.3319 -87.2906 111° Southeast 472 543 36,900  Level Houston Center
01:45PM 28.2850 -87.1500 111° Southeast 477 549 36,900  Level Houston Center
01:46PM 28.2386 -87.0103 111° Southeast 476 548 36,900  Level Houston Center
01:47PM 28.1908 -86.8689 111° Southeast 481 554 36,900  Level Houston Center
01:48PM 28.1444 -86.7281 110° East 480 552 36,900  Level Houston Center
01:49PM 28.0833 -86.5528 112° Southeast 481 554 36,900  Level Jacksonville Center
01:50PM 28.0350 -86.4100 111° Southeast 481 554 36,900 300 Level Jacksonville Center
01:52PM 27.9383 -86.1247 111° Southeast 484 557 37,800 540 Climbing Jacksonville Center
01:53PM 27.8917 -85.9894 111° Southeast 479 551 38,600 540 Climbing Jacksonville Center
01:54PM 27.8347 -85.8353 113° Southeast 478 550 38,900 120 Climbing Jacksonville Center
01:55PM 27.7836 -85.6883 111° Southeast 485 558 38,900  Level Jacksonville Center
01:56PM 27.7522 -85.5786 108° East 473 544 39,000  Climbing Miami Center
01:57PM 27.7006 -85.4342 112° Southeast 483 556 39,000 -60 Level Miami Center
01:58PM 27.6333 -85.3003 120° Southeast 488 562 38,900 -60 Descending Miami Center
01:59PM 27.5639 -85.1689 121° Southeast 487 560 38,900  Level Miami Center
02:00PM 27.4942 -85.0400 121° Southeast 487 560 38,900 -240 Level Miami Center
02:01PM 27.4264 -84.9114 121° Southeast 492 566 38,500 -660 Descending Miami Center
02:02PM 27.3522 -84.7847 123° Southeast 492 566 37,600 -840 Descending Miami Center
02:03PM 27.2861 -84.6589 121° Southeast 481 554 36,900 -360 Descending Miami Center
02:04PM 27.2136 -84.5350 123° Southeast 476 548 36,900  Level Miami Center
02:05PM 27.1450 -84.4117 122° Southeast 470 541 36,900  Level Miami Center
02:06PM 27.0764 -84.2839 121° Southeast 475 547 37,000 600 Climbing Miami Center
02:07PM 27.0097 -84.1631 122° Southeast 470 541 38,200 900 Climbing Miami Center
02:08PM 26.9408 -84.0378 122° Southeast 470 541 38,900 300 Climbing Miami Center
02:09PM 26.8678 -83.9147 124° Southeast 470 541 38,900  Level Miami Center
02:10PM 26.8006 -83.7922 122° Southeast 475 547 38,900  Level Miami Center
02:11PM 26.7333 -83.6719 122° Southeast 475 547 38,900  Level Miami Center
02:12PM 26.6636 -83.5519 123° Southeast 474 545 38,900  Level Miami Center
02:13PM 26.5964 -83.4297 122° Southeast 468 539 38,900  Level Miami Center
02:14PM 26.5267 -83.3097 123° Southeast 468 539 38,900  Level Miami Center
02:15PM 26.4567 -83.1878 123° Southeast 468 539 39,000  Climbing Miami Center
02:16PM 26.3889 -83.0683 122° Southeast 468 539 38,900 -60 Descending Miami Center
02:17PM 26.3208 -82.9511 123° Southeast 463 533 38,900  Level Miami Center
02:18PM 26.2547 -82.8344 122° Southeast 463 533 38,900  Level Miami Center
02:19PM 26.1864 -82.7178 123° Southeast 457 526 38,900  Level Miami Center
02:20PM 26.1161 -82.5964 123° Southeast 457 526 39,000  Climbing Miami Center
02:21PM 26.0397 -82.4633 123° Southeast 457 526 38,900 -60 Descending Miami Center
02:22PM 25.9692 -82.3444 123° Southeast 457 526 38,900  Level Miami Center
02:23PM 25.9025 -82.2283 123° Southeast 457 526 38,900  Level Miami Center
02:24PM 25.8336 -82.1100 123° Southeast 457 526 38,900  Level Miami Center
02:25PM 25.7647 -81.9917 123° Southeast 457 526 38,900  Level Miami Center
02:26PM 25.6958 -81.8758 123° Southeast 457 526 38,900  Level Miami Center
02:27PM 25.6289 -81.7556 122° Southeast 457 526 38,900  Level Miami Center
02:28PM 25.5594 -81.6400 124° Southeast 457 526 38,900  Level Miami Center
02:29PM 25.4961 -81.5339 123° Southeast 457 526 38,900  Level Miami Center
02:30PM 25.4244 -81.4186 125° Southeast 457 526 38,900  Level Miami Center
02:31PM 25.3592 -81.3058 123° Southeast 457 526 38,900  Level Miami Center
02:32PM 25.2875 -81.1858 123° Southeast 457 526 38,900  Level Miami Center
02:33PM 25.2219 -81.0733 123° Southeast 457 526 38,900  Level Miami Center
02:34PM 25.1497 -80.9608 125° Southeast 457 526 38,900  Level Miami Center
02:35PM 25.0819 -80.8439 123° Southeast 457 526 38,900  Level Miami Center
02:36PM 25.0139 -80.7339 124° Southeast 452 520 38,900  Level Miami Center
02:37PM 24.9481 -80.6194 122° Southeast 452 520 38,900  Level Miami Center
02:38PM 24.8778 -80.5053 124° Southeast 452 520 38,900  Level Miami Center
02:39PM 24.7881 -80.4133 137° Southeast 452 520 38,900  Level Miami Center
02:40PM 24.6747 -80.3461 152° Southeast 441 507 38,900  Level Miami Center
02:41PM 24.5656 -80.2792 151° Southeast 453 521 38,900  Level Miami Center
02:42PM 24.4500 -80.2119 152° Southeast 453 521 38,900  Level Miami Center
02:43PM 24.3367 -80.1497 153° Southeast 453 521 38,900  Level Miami Center
02:44PM 24.2253 -80.0831 151° Southeast 453 521 38,900  Level Miami Center
02:45PM 24.1028 -80.0411 163° South 458 527 38,900  Level Miami Center
02:46PM 23.9761 -80.0061 166° South 464 534 38,900  Level Miami Center
02:48PM 23.8132 -79.9413 152° Southeast  Level Estimated
02:55PM 23.0742 -79.4481 148° Southeast  Level FlightAware Approximate
02:56PM 22.9685 -79.3780 149° Southeast  Level FlightAware Approximate
02:57PM 22.8628 -79.3081 149° Southeast  Level FlightAware Approximate
02:58PM 22.7514 -79.2381 152° Southeast  Level FlightAware Approximate
02:59PM 22.6425 -79.1743 152° Southeast  Level FlightAware Approximate
03:00PM 22.5336 -79.1106 152° Southeast  Level FlightAware Approximate
03:01PM 22.4246 -79.0469 152° Southeast  Level FlightAware Approximate
03:02PM 22.3157 -78.9834 152° Southeast  Level FlightAware Approximate
03:03PM 22.2067 -78.9200 152° Southeast  Level FlightAware Approximate
03:04PM 22.0977 -78.8566 152° Southeast  Level FlightAware Approximate
03:05PM 21.9874 -78.7968 167° South  Level FlightAware Approximate
03:06PM 21.8668 -78.7665 167° South  Level FlightAware Approximate
03:07PM 21.7463 -78.7363 167° South  Level FlightAware Approximate
03:08PM 21.6257 -78.7061 167° South  Level FlightAware Approximate
03:09PM 21.5051 -78.6760 167° South  Level FlightAware Approximate
03:10PM 21.3845 -78.6459 167° South  Level FlightAware Approximate
03:11PM 21.2639 -78.6159 167° South  Level FlightAware Approximate
03:12PM 21.1438 -78.5839 165° South  Level FlightAware Approximate
03:13PM 21.0242 -78.5497 165° South  Level FlightAware Approximate
03:14PM 20.9046 -78.5156 165° South  Level FlightAware Approximate
03:15PM 20.7842 -78.4848 168° South  Level FlightAware Approximate
03:16PM 20.6632 -78.4568 168° South  Level FlightAware Approximate
03:17PM 20.5422 -78.4289 168° South  Level FlightAware Approximate
03:18PM 20.4212 -78.4010 168° South  Level FlightAware Approximate
03:19PM 20.3009 -78.3712 161° South  Level FlightAware Approximate
03:20PM 20.1835 -78.3297 168° South  Level FlightAware Approximate
03:21PM 20.0623 -78.3027 168° South  Level FlightAware Approximate
03:22PM 19.9410 -78.2769 167° South  Level FlightAware Approximate
03:23PM 19.8205 -78.2468 167° South  Level FlightAware Approximate
03:24PM 19.7002 -78.2156 166° South  Level FlightAware Approximate
03:25PM 19.5802 -78.1835 166° South  Level FlightAware Approximate
03:26PM 19.4601 -78.1515 166° South  Level FlightAware Approximate
03:27PM 19.3400 -78.1195 166° South  Level FlightAware Approximate
03:28PM 19.2194 -78.0905 169° South  Level FlightAware Approximate
03:29PM 19.0977 -78.0661 167° South  Level FlightAware Approximate
03:30PM 18.9773 -78.0360 167° South  Level FlightAware Approximate
03:31PM 18.8573 -78.0038 164° South  Level FlightAware Approximate
03:32PM 18.7382 -77.9681 164° South  Level FlightAware Approximate
03:33PM 18.6176 -77.9435 169° South  Level FlightAware Approximate
03:34PM 18.5016 -77.9008 155° Southeast  Level FlightAware Approximate
03:35PM 18.5000 -77.9000 155° Southeast  Level FlightAware Approximate
03:36PM 18.5037 -77.9134 155° Southeast  Level Estimated
03:37PM 18.5037 -77.9134 155° Southeast  Level Estimated
03:38PM 18.5037 -77.9134 155° Southeast  Level Estimated
03:39PM 18.5037 -77.9134 155° Southeast  Level Estimated
03:40PM 18.5037 -77.9134 155° Southeast  Level Estimated